Time;durP1;ratioP1;P1;durP2;ratioP2;P2;SDS_P1;SDS_P2;PMS_P1;PMS_P2;Temp;Humidity;BMP_temperature;BMP_pressure;BME280_temperature;BME280_humidity;BME280_pressure;Samples;Min_cycle;Max_cycle;Signal;HPM_P1;HPM_P2
2022/01/30 00:01:37;;;;;;;51.90;8.20;;;6.70;99.90;;;;;;4951216;28;20050;-54
2022/01/30 00:04:02;;;;;;;63.53;10.18;;;6.70;99.90;;;;;;4959868;28;20031;-56
2022/01/30 00:06:28;;;;;;;71.15;7.60;;;6.70;99.90;;;;;;4949609;28;20117;-55
2022/01/30 00:08:54;;;;;;;67.45;9.48;;;6.70;99.90;;;;;;4954249;28;20039;-51
2022/01/30 00:11:23;;;;;;;49.80;7.85;;;6.60;99.90;;;;;;4949232;28;20430;-53
2022/01/30 00:13:50;;;;;;;59.33;8.85;;;6.60;99.90;;;;;;4951065;28;20260;-51
2022/01/30 00:16:18;;;;;;;44.95;6.72;;;6.40;99.90;;;;;;4947788;28;20035;-52
2022/01/30 00:19:47;;;;;;;63.45;8.13;;;6.20;99.90;;;;;;4956481;28;20043;-52
2022/01/30 00:21:45;;;;;;;55.13;9.18;;;6.00;99.90;;;;;;4948707;28;20095;-52
2022/01/30 00:24:20;;;;;;;47.90;6.57;;;6.00;99.90;;;;;;4950552;28;20031;-54
2022/01/30 00:26:47;;;;;;;56.85;8.95;;;6.00;99.90;;;;;;4949284;28;20107;-50
2022/01/30 00:29:13;;;;;;;74.00;10.55;;;6.00;99.90;;;;;;4965756;28;20029;-52
2022/01/30 00:31:39;;;;;;;82.07;10.95;;;5.90;99.90;;;;;;4962264;28;20090;-55
2022/01/30 00:34:05;;;;;;;57.58;9.43;;;5.90;99.90;;;;;;4972420;28;20034;-57
2022/01/30 00:36:31;;;;;;;77.50;10.63;;;6.00;99.90;;;;;;4968447;28;20101;-57
2022/01/30 00:39:00;;;;;;;65.80;7.85;;;6.10;99.90;;;;;;4973482;28;20389;-58
2022/01/30 00:41:26;;;;;;;59.45;9.25;;;6.10;99.90;;;;;;4986028;28;20035;-59
2022/01/30 00:43:52;;;;;;;69.55;9.93;;;6.20;99.90;;;;;;4980868;28;20027;-57
2022/01/30 00:46:18;;;;;;;62.72;8.85;;;6.30;99.90;;;;;;4973029;28;20027;-56
2022/01/30 00:48:44;;;;;;;64.90;9.73;;;6.20;99.90;;;;;;4975291;28;20380;-57
2022/01/30 00:51:09;;;;;;;53.65;6.97;;;6.10;99.90;;;;;;4974295;28;20441;-58
2022/01/30 00:53:35;;;;;;;86.93;11.25;;;6.10;99.90;;;;;;4984610;28;20476;-58
2022/01/30 00:56:01;;;;;;;66.28;9.52;;;6.10;99.90;;;;;;4978401;28;20460;-58
2022/01/30 00:58:26;;;;;;;52.72;8.48;;;6.10;99.90;;;;;;4990275;28;20434;-56
2022/01/30 01:00:52;;;;;;;61.28;8.23;;;6.20;99.90;;;;;;4968902;28;20031;-54
2022/01/30 01:03:18;;;;;;;62.97;8.13;;;6.20;99.90;;;;;;4965582;28;20031;-53
2022/01/30 01:05:44;;;;;;;60.00;9.07;;;6.10;99.90;;;;;;4978040;28;20042;-54
2022/01/30 01:08:26;;;;;;;46.15;7.13;;;5.90;99.90;;;;;;4984010;28;20475;-52
2022/01/30 01:10:59;;;;;;;55.13;6.97;;;5.60;99.90;;;;;;4959756;28;20031;-54
2022/01/30 01:24:07;;;;;;;51.03;6.45;;;5.30;99.90;;;;;;4974107;28;20388;-51
2022/01/30 01:26:34;;;;;;;65.13;9.15;;;5.40;99.90;;;;;;4973324;28;20074;-52
2022/01/30 01:29:00;;;;;;;45.80;6.80;;;5.50;99.90;;;;;;4979649;28;20491;-53
2022/01/30 01:31:25;;;;;;;65.70;8.85;;;5.70;99.90;;;;;;4983042;28;20046;-52
2022/01/30 01:36:26;;;;;;;56.75;7.97;;;5.80;99.90;;;;;;4973607;28;20130;-53
2022/01/30 01:38:52;;;;;;;56.67;6.60;;;5.80;99.90;;;;;;4973813;28;20114;-55
2022/01/30 01:41:22;;;;;;;54.97;7.10;;;5.90;99.90;;;;;;4973052;28;20035;-55
2022/01/30 01:43:50;;;;;;;41.28;6.82;;;5.90;99.90;;;;;;4973479;28;20015;-58
2022/01/30 01:46:27;;;;;;;49.17;7.05;;;5.90;99.90;;;;;;4972335;28;20401;-58
2022/01/30 01:48:53;;;;;;;50.72;7.00;;;5.90;99.90;;;;;;4959009;28;20030;-58
2022/01/30 01:51:25;;;;;;;42.00;6.43;;;5.90;99.90;;;;;;4972447;28;20035;-57
2022/01/30 01:53:56;;;;;;;46.28;7.22;;;5.90;99.90;;;;;;4973218;28;20047;-57
2022/01/30 01:56:23;;;;;;;45.35;7.82;;;5.90;99.90;;;;;;4971492;28;20039;-55
2022/01/30 01:58:49;;;;;;;44.38;8.15;;;5.90;99.90;;;;;;4972787;28;20023;-57
2022/01/30 02:01:15;;;;;;;42.97;7.63;;;6.00;99.90;;;;;;4954817;28;20460;-55
2022/01/30 02:03:43;;;;;;;62.90;7.95;;;6.00;99.90;;;;;;4972652;28;20035;-59
2022/01/30 02:06:12;;;;;;;53.33;7.97;;;6.00;99.90;;;;;;4971514;28;20476;-58
2022/01/30 02:08:45;;;;;;;59.75;8.77;;;6.00;99.90;;;;;;4983672;28;20113;-57
2022/01/30 02:11:16;;;;;;;58.00;8.43;;;6.00;99.90;;;;;;4972189;28;20030;-59
2022/01/30 02:25:19;;;;;;;47.22;7.88;;;5.70;99.90;;;;;;4935345;28;20035;-59
2022/01/30 02:27:44;;;;;;;61.13;9.30;;;5.60;99.90;;;;;;4950326;28;20583;-58
2022/01/30 02:30:17;;;;;;;76.28;10.27;;;5.60;99.90;;;;;;4963893;28;20055;-57
2022/01/30 02:32:43;;;;;;;89.88;11.15;;;5.60;99.90;;;;;;4972254;28;20038;-58
2022/01/30 02:35:09;;;;;;;65.68;9.10;;;5.80;99.90;;;;;;4970852;28;20035;-58
2022/01/30 02:37:35;;;;;;;68.03;10.20;;;5.80;99.90;;;;;;4971781;28;20086;-58
2022/01/30 02:40:04;;;;;;;61.92;8.65;;;5.90;99.90;;;;;;4972146;28;20086;-57
2022/01/30 02:42:33;;;;;;;53.55;8.70;;;5.90;99.90;;;;;;4954335;28;20464;-55
2022/01/30 02:45:02;;;;;;;56.00;8.70;;;5.80;99.90;;;;;;4971071;28;20035;-54
2022/01/30 02:52:57;;;;;;;39.67;7.63;;;5.70;99.90;;;;;;4949587;28;20038;-56
2022/01/30 02:55:23;;;;;;;46.97;7.43;;;5.70;99.90;;;;;;4970434;28;20117;-55
2022/01/30 02:57:49;;;;;;;44.92;7.57;;;5.70;99.90;;;;;;4971296;28;20023;-57
2022/01/30 03:00:16;;;;;;;41.25;7.78;;;5.70;99.90;;;;;;4971106;28;20059;-57
2022/01/30 03:02:42;;;;;;;50.67;6.88;;;5.80;99.90;;;;;;4968217;28;20039;-55
2022/01/30 03:05:08;;;;;;;56.00;8.73;;;5.80;99.90;;;;;;4953320;28;20468;-55
2022/01/30 03:07:33;;;;;;;59.22;8.35;;;5.80;99.90;;;;;;4971398;28;20027;-56
2022/01/30 03:09:59;;;;;;;40.53;7.22;;;5.80;99.90;;;;;;4971489;28;20041;-58
2022/01/30 03:12:25;;;;;;;63.55;10.80;;;5.80;99.90;;;;;;4970646;28;20035;-56
2022/01/30 03:14:51;;;;;;;64.47;10.07;;;5.90;99.90;;;;;;4970655;28;20035;-55
2022/01/30 03:17:16;;;;;;;60.47;8.77;;;5.90;99.90;;;;;;4970759;28;20031;-56
2022/01/30 03:19:42;;;;;;;57.47;8.60;;;6.00;99.90;;;;;;4970900;28;20041;-56
2022/01/30 03:22:08;;;;;;;47.78;8.57;;;5.90;99.90;;;;;;4970956;28;20027;-58
2022/01/30 03:24:36;;;;;;;59.92;9.40;;;5.90;99.90;;;;;;4970678;28;20030;-53
2022/01/30 03:27:08;;;;;;;37.92;5.75;;;5.90;99.90;;;;;;4970757;28;20019;-54
2022/01/30 03:29:35;;;;;;;48.13;7.72;;;5.90;99.90;;;;;;4970927;28;20027;-55
2022/01/30 03:32:01;;;;;;;61.65;7.88;;;5.90;99.90;;;;;;4970758;28;20062;-55
2022/01/30 03:34:27;;;;;;;49.28;8.82;;;5.90;99.90;;;;;;4953180;28;20035;-57
2022/01/30 03:36:53;;;;;;;46.00;8.25;;;5.90;99.90;;;;;;4970844;28;20026;-55
2022/01/30 03:39:19;;;;;;;65.55;9.07;;;5.80;99.90;;;;;;4953007;28;20037;-54
2022/01/30 03:41:44;;;;;;;65.68;8.30;;;5.80;99.90;;;;;;4953356;28;20477;-57
2022/01/30 03:44:10;;;;;;;67.43;9.57;;;5.80;99.90;;;;;;4970510;28;20031;-54
2022/01/30 03:46:36;;;;;;;59.70;7.70;;;5.80;99.90;;;;;;4969944;28;20480;-55
2022/01/30 03:49:01;;;;;;;73.22;10.80;;;5.80;99.90;;;;;;4970595;28;20058;-54
2022/01/30 03:51:27;;;;;;;63.70;9.45;;;5.80;99.90;;;;;;4970523;28;20026;-54
2022/01/30 03:53:53;;;;;;;74.63;8.52;;;5.80;99.90;;;;;;4970767;28;20039;-55
2022/01/30 03:56:18;;;;;;;84.03;11.30;;;5.90;99.90;;;;;;4969413;28;20050;-55
2022/01/30 03:58:44;;;;;;;55.35;8.82;;;5.80;99.90;;;;;;4970833;28;20034;-55
2022/01/30 04:01:09;;;;;;;66.63;8.25;;;5.80;99.90;;;;;;4970379;28;20027;-57
2022/01/30 04:03:36;;;;;;;50.40;8.32;;;5.80;99.90;;;;;;4970596;28;20138;-57
2022/01/30 04:06:04;;;;;;;67.15;9.43;;;5.70;99.90;;;;;;4969906;28;20042;-55
2022/01/30 04:08:30;;;;;;;58.38;8.50;;;5.60;99.90;;;;;;4970507;28;20039;-55
2022/01/30 04:10:56;;;;;;;48.67;7.50;;;5.60;99.90;;;;;;4970848;28;20035;-55
2022/01/30 04:13:22;;;;;;;52.42;7.75;;;5.70;99.90;;;;;;4970483;28;20505;-57
2022/01/30 04:15:48;;;;;;;49.22;8.18;;;5.70;99.90;;;;;;4973226;28;20505;-55
2022/01/30 04:18:13;;;;;;;49.33;7.85;;;5.70;99.90;;;;;;4973748;28;20440;-57
2022/01/30 04:20:40;;;;;;;54.90;7.70;;;5.80;99.90;;;;;;4973838;28;20058;-53
2022/01/30 04:23:05;;;;;;;52.65;9.82;;;5.80;99.90;;;;;;4973844;28;20031;-55
2022/01/30 04:25:31;;;;;;;51.88;8.55;;;5.80;99.90;;;;;;4973812;28;20046;-54
2022/01/30 04:27:57;;;;;;;48.92;7.85;;;5.80;99.90;;;;;;4974078;28;20074;-53
2022/01/30 04:30:22;;;;;;;42.47;7.18;;;5.80;99.90;;;;;;4973668;28;20529;-54
2022/01/30 04:32:48;;;;;;;68.75;8.13;;;5.80;99.90;;;;;;4974542;28;20030;-54
2022/01/30 04:35:24;;;;;;;63.00;8.13;;;5.80;99.90;;;;;;4973318;28;20432;-54
2022/01/30 05:01:57;;;;;;;65.38;9.25;;;6.10;99.90;;;;;;4975380;28;20059;-54
2022/01/30 05:09:33;;;;;;;70.43;9.63;;;6.10;99.90;;;;;;4973266;28;20118;-53
2022/01/30 05:11:59;;;;;;;74.80;10.40;;;6.00;99.90;;;;;;4973190;28;20126;-53
2022/01/30 05:14:28;;;;;;;70.38;9.73;;;6.10;99.90;;;;;;4973128;28;20038;-54
2022/01/30 05:16:53;;;;;;;60.92;10.35;;;6.10;99.90;;;;;;4976364;28;20030;-54
2022/01/30 05:19:19;;;;;;;44.53;7.93;;;6.10;99.90;;;;;;4992507;28;20030;-53
2022/01/30 05:21:45;;;;;;;63.25;8.55;;;6.00;99.90;;;;;;4982605;28;20438;-53
2022/01/30 05:24:11;;;;;;;58.03;9.68;;;6.10;99.90;;;;;;4972585;28;20348;-53
2022/01/30 05:26:41;;;;;;;60.05;10.15;;;6.00;99.90;;;;;;4971791;28;20039;-53
2022/01/30 05:29:07;;;;;;;58.15;9.02;;;6.10;99.90;;;;;;4972286;28;20042;-53
2022/01/30 05:31:33;;;;;;;64.38;9.57;;;6.00;99.90;;;;;;4972835;28;20035;-53
2022/01/30 05:33:58;;;;;;;57.33;8.88;;;6.10;99.90;;;;;;4973122;28;20050;-55
2022/01/30 05:36:24;;;;;;;65.05;8.63;;;6.00;99.90;;;;;;4971719;28;20062;-54
2022/01/30 05:38:51;;;;;;;52.47;8.18;;;6.00;99.90;;;;;;4973197;28;20120;-55
2022/01/30 05:41:17;;;;;;;64.85;10.52;;;6.00;99.90;;;;;;4972334;28;20031;-54
2022/01/30 05:43:45;;;;;;;62.28;9.18;;;5.90;99.90;;;;;;4972936;28;20019;-53
2022/01/30 05:46:16;;;;;;;54.33;7.95;;;5.90;99.90;;;;;;4971485;28;20038;-54
2022/01/30 05:48:42;;;;;;;68.68;9.32;;;5.90;99.90;;;;;;4972850;28;20417;-55
2022/01/30 05:51:08;;;;;;;56.15;9.43;;;5.90;99.90;;;;;;4954550;28;20034;-56
2022/01/30 05:53:34;;;;;;;74.07;10.07;;;5.90;99.90;;;;;;4972525;28;20031;-59
2022/01/30 05:56:00;;;;;;;54.28;7.95;;;6.00;99.90;;;;;;4971467;28;20152;-54
2022/01/30 05:58:26;;;;;;;49.15;8.85;;;5.90;99.90;;;;;;4972222;28;20509;-54
2022/01/30 06:00:52;;;;;;;51.28;9.27;;;5.90;99.90;;;;;;4972913;28;20053;-54
2022/01/30 06:03:17;;;;;;;56.40;7.20;;;5.90;99.90;;;;;;4971863;28;20034;-53
2022/01/30 06:05:46;;;;;;;53.63;7.20;;;5.90;99.90;;;;;;4972055;28;20056;-57
2022/01/30 06:08:39;;;;;;;50.97;9.00;;;5.90;99.90;;;;;;4971738;28;20027;-56
2022/01/30 06:10:57;;;;;;;62.67;9.45;;;5.80;99.90;;;;;;4971839;28;20503;-55
2022/01/30 06:13:23;;;;;;;61.70;9.27;;;5.80;99.90;;;;;;4971789;28;20042;-55
2022/01/30 06:15:48;;;;;;;59.28;9.13;;;5.70;99.90;;;;;;4971732;28;20039;-58
2022/01/30 06:18:14;;;;;;;60.20;9.85;;;5.70;99.90;;;;;;4971657;28;20035;-54
2022/01/30 06:20:40;;;;;;;49.50;8.52;;;5.70;99.90;;;;;;4972276;28;20031;-55
2022/01/30 06:23:05;;;;;;;52.80;9.02;;;5.60;99.90;;;;;;4971446;28;20042;-59
2022/01/30 06:25:31;;;;;;;57.08;8.43;;;5.60;99.90;;;;;;4971771;28;20081;-56
2022/01/30 06:27:56;;;;;;;73.13;10.13;;;5.70;99.90;;;;;;4971972;28;20039;-53
2022/01/30 06:30:22;;;;;;;43.42;6.20;;;5.60;99.90;;;;;;4971618;28;20126;-55
2022/01/30 06:32:49;;;;;;;54.78;9.45;;;5.60;99.90;;;;;;4972025;28;20027;-54
2022/01/30 06:35:15;;;;;;;61.45;10.27;;;5.60;99.90;;;;;;4970657;28;20484;-53
2022/01/30 06:37:41;;;;;;;71.72;9.85;;;5.60;99.90;;;;;;4970768;28;20218;-53
2022/01/30 06:40:07;;;;;;;75.90;9.70;;;5.60;99.90;;;;;;4971736;28;20082;-52
2022/01/30 06:42:33;;;;;;;87.47;11.68;;;5.60;99.90;;;;;;4971913;28;20028;-54
2022/01/30 06:44:58;;;;;;;81.13;11.30;;;5.70;99.90;;;;;;4971121;28;20476;-55
2022/01/30 06:47:24;;;;;;;82.30;12.00;;;5.70;99.90;;;;;;4971636;28;20508;-55
2022/01/30 06:49:50;;;;;;;64.85;9.20;;;5.80;99.90;;;;;;4971349;28;20393;-56
2022/01/30 06:52:16;;;;;;;73.97;9.55;;;5.80;99.90;;;;;;4971068;28;20045;-55
2022/01/30 06:54:42;;;;;;;54.30;8.98;;;5.80;99.90;;;;;;4971154;28;20030;-59
2022/01/30 06:57:07;;;;;;;61.95;7.80;;;5.80;99.90;;;;;;4971084;28;20133;-55
2022/01/30 06:59:33;;;;;;;63.75;9.45;;;5.90;99.90;;;;;;4971607;28;20499;-55
2022/01/30 07:01:59;;;;;;;54.67;9.80;;;5.80;99.90;;;;;;4976608;28;20030;-56
2022/01/30 07:04:25;;;;;;;57.20;9.30;;;5.80;99.90;;;;;;4983549;28;20057;-53
2022/01/30 07:06:50;;;;;;;42.55;6.75;;;5.80;99.90;;;;;;4964277;28;20058;-55
2022/01/30 07:09:17;;;;;;;65.32;9.10;;;5.80;99.90;;;;;;4970829;28;20503;-55
2022/01/30 07:11:43;;;;;;;51.97;8.60;;;5.70;99.90;;;;;;4971489;28;20090;-52
2022/01/30 07:14:08;;;;;;;50.22;8.02;;;5.70;99.90;;;;;;4970843;28;20122;-56
2022/01/30 07:16:34;;;;;;;55.50;9.10;;;5.70;99.90;;;;;;4970604;28;20062;-57
2022/01/30 07:18:59;;;;;;;56.63;7.60;;;5.70;99.90;;;;;;4970853;28;20030;-55
2022/01/30 07:21:25;;;;;;;52.35;8.55;;;5.60;99.90;;;;;;4970994;28;20031;-52
2022/01/30 07:23:51;;;;;;;62.03;8.35;;;5.50;99.90;;;;;;4971048;28;20031;-54
2022/01/30 07:26:16;;;;;;;55.92;9.63;;;5.50;99.90;;;;;;4970072;28;20054;-54
2022/01/30 07:28:42;;;;;;;72.10;10.48;;;5.60;99.90;;;;;;4971095;28;20468;-56
2022/01/30 07:31:08;;;;;;;94.97;12.90;;;5.60;99.90;;;;;;4970322;28;20379;-55
2022/01/30 07:33:35;;;;;;;76.38;11.00;;;5.70;99.90;;;;;;4984333;28;20038;-53
2022/01/30 07:36:01;;;;;;;80.50;10.25;;;5.70;99.90;;;;;;4988753;28;20477;-57
2022/01/30 07:38:28;;;;;;;70.13;10.57;;;5.70;99.90;;;;;;4970819;28;20491;-55
2022/01/30 07:40:54;;;;;;;77.03;11.55;;;5.70;99.90;;;;;;4953290;28;20027;-54
2022/01/30 07:43:20;;;;;;;70.82;11.80;;;5.80;99.90;;;;;;4953000;28;20118;-56
2022/01/30 07:45:46;;;;;;;62.35;10.10;;;5.90;99.90;;;;;;4967188;28;20023;-56
2022/01/30 07:48:12;;;;;;;88.05;10.93;;;5.90;99.90;;;;;;4951730;28;20031;-55
2022/01/30 07:50:37;;;;;;;71.07;9.38;;;6.00;99.90;;;;;;4951275;29;20114;-57
2022/01/30 07:53:03;;;;;;;62.22;8.88;;;6.00;99.90;;;;;;4959958;28;20401;-54
2022/01/30 07:55:29;;;;;;;73.47;11.20;;;6.00;99.90;;;;;;4968895;28;20714;-54
2022/01/30 07:57:55;;;;;;;78.93;13.20;;;6.00;99.90;;;;;;4970435;28;20061;-54
2022/01/30 08:00:21;;;;;;;79.20;11.65;;;6.00;99.90;;;;;;4969978;28;20050;-56
2022/01/30 08:02:47;;;;;;;73.05;10.05;;;6.10;99.90;;;;;;4975502;28;20201;-56
2022/01/30 08:05:13;;;;;;;76.40;11.10;;;6.10;99.90;;;;;;4936702;28;20107;-53
2022/01/30 08:07:39;;;;;;;73.40;10.55;;;6.10;99.90;;;;;;4956309;28;20229;-54
2022/01/30 08:10:05;;;;;;;76.85;11.65;;;6.10;99.90;;;;;;4970614;28;20437;-55
2022/01/30 08:12:31;;;;;;;73.90;9.85;;;6.10;99.90;;;;;;4970544;28;20484;-56
2022/01/30 08:14:56;;;;;;;80.57;12.75;;;6.10;99.90;;;;;;4969982;28;20066;-54
2022/01/30 08:17:23;;;;;;;69.78;10.90;;;6.20;99.90;;;;;;4969773;28;20030;-54
2022/01/30 08:19:50;;;;;;;81.68;11.75;;;6.20;99.90;;;;;;4970845;28;20085;-57
2022/01/30 08:22:16;;;;;;;72.70;10.82;;;6.20;99.90;;;;;;4941344;28;20129;-56
2022/01/30 08:24:42;;;;;;;54.67;9.10;;;6.20;99.90;;;;;;4949198;29;20102;-59
2022/01/30 08:27:08;;;;;;;82.90;11.95;;;6.20;99.90;;;;;;4959128;28;20062;-55
2022/01/30 08:29:33;;;;;;;51.17;8.18;;;6.20;99.90;;;;;;4969824;28;20396;-53
2022/01/30 08:31:59;;;;;;;70.85;9.90;;;6.20;99.90;;;;;;4969509;28;20038;-53
2022/01/30 08:34:26;;;;;;;68.35;9.68;;;6.30;99.90;;;;;;4969196;28;20042;-60
2022/01/30 08:36:52;;;;;;;68.35;9.30;;;6.20;99.90;;;;;;4951462;28;20038;-54
2022/01/30 08:39:18;;;;;;;77.70;12.23;;;6.30;99.90;;;;;;4968520;28;20034;-55
2022/01/30 08:41:44;;;;;;;65.35;9.95;;;6.30;99.90;;;;;;4969266;28;20467;-55
2022/01/30 08:44:09;;;;;;;70.30;9.80;;;6.30;99.90;;;;;;4969040;28;20085;-52
2022/01/30 08:46:35;;;;;;;52.25;8.68;;;6.30;99.90;;;;;;4968819;28;20076;-53
2022/01/30 08:49:01;;;;;;;62.30;10.00;;;6.30;99.90;;;;;;4967574;28;20051;-53
2022/01/30 08:51:27;;;;;;;49.40;9.88;;;6.30;99.90;;;;;;4972013;28;20058;-58
2022/01/30 08:53:52;;;;;;;63.20;9.27;;;6.50;99.90;;;;;;4978842;28;20026;-55
2022/01/30 08:56:21;;;;;;;68.38;10.20;;;6.50;99.90;;;;;;4968721;28;20035;-56
2022/01/30 08:58:47;;;;;;;59.85;9.38;;;6.40;99.90;;;;;;4982937;28;20038;-54
2022/01/30 09:01:13;;;;;;;72.10;10.27;;;6.40;99.90;;;;;;4970998;28;20034;-53
2022/01/30 09:03:39;;;;;;;60.40;9.50;;;6.30;99.90;;;;;;4973095;28;20034;-57
2022/01/30 09:06:05;;;;;;;68.22;9.02;;;6.30;99.90;;;;;;4971617;28;20394;-56
2022/01/30 09:08:31;;;;;;;53.65;7.82;;;6.30;99.90;;;;;;4972082;28;20042;-55
2022/01/30 09:10:57;;;;;;;60.45;10.02;;;6.30;99.90;;;;;;4972059;28;20128;-57
2022/01/30 09:13:24;;;;;;;69.75;10.55;;;6.30;99.90;;;;;;4976116;28;20433;-55
2022/01/30 09:15:56;;;;;;;63.85;10.48;;;6.30;99.90;;;;;;4971723;28;20037;-57
2022/01/30 09:18:21;;;;;;;78.65;11.38;;;6.40;99.90;;;;;;4972187;28;20050;-55
2022/01/30 09:20:47;;;;;;;60.17;9.32;;;6.40;99.90;;;;;;4973138;28;20099;-56
2022/01/30 09:23:13;;;;;;;72.20;9.65;;;6.50;99.90;;;;;;4973957;28;20494;-58
2022/01/30 09:25:39;;;;;;;97.45;11.98;;;6.40;99.90;;;;;;4971928;28;20034;-58
2022/01/30 09:28:05;;;;;;;82.00;12.32;;;6.50;99.90;;;;;;4976977;28;20034;-57
2022/01/30 09:30:31;;;;;;;71.03;11.07;;;6.40;99.90;;;;;;4979580;28;20034;-57
2022/01/30 09:32:57;;;;;;;70.05;9.93;;;6.40;99.90;;;;;;4985270;28;20108;-56
2022/01/30 09:35:23;;;;;;;78.50;11.95;;;6.50;99.90;;;;;;4972927;28;20066;-55
2022/01/30 09:37:49;;;;;;;63.17;9.55;;;6.50;99.90;;;;;;4973087;28;20081;-55
2022/01/30 09:40:17;;;;;;;83.55;10.77;;;6.50;99.90;;;;;;4972868;28;20039;-55
2022/01/30 09:42:45;;;;;;;74.13;11.48;;;6.50;99.90;;;;;;4975372;28;20026;-55
2022/01/30 09:45:12;;;;;;;75.95;11.55;;;6.50;99.90;;;;;;4986954;28;20069;-55
2022/01/30 09:47:39;;;;;;;68.63;10.68;;;6.50;99.90;;;;;;4974403;28;20073;-56
2022/01/30 09:50:06;;;;;;;80.20;11.10;;;6.60;99.90;;;;;;4982751;28;20026;-57
2022/01/30 09:52:32;;;;;;;73.53;12.00;;;6.60;99.90;;;;;;4978199;28;20030;-56
2022/01/30 09:54:58;;;;;;;68.18;12.18;;;6.70;99.90;;;;;;4980611;28;20030;-58
2022/01/30 09:57:23;;;;;;;94.00;12.25;;;6.60;99.90;;;;;;4979128;28;20078;-56
2022/01/30 09:59:49;;;;;;;361.27;107.10;;;6.60;99.90;;;;;;4975569;28;20045;-54
2022/01/30 10:02:15;;;;;;;465.63;135.68;;;7.20;99.90;;;;;;4979254;28;20470;-56
2022/01/30 10:04:40;;;;;;;76.85;12.98;;;7.50;99.90;;;;;;4975102;28;20031;-58
2022/01/30 10:07:13;;;;;;;75.38;12.95;;;7.10;99.90;;;;;;4978297;28;20383;-58
2022/01/30 10:09:44;;;;;;;74.13;12.05;;;6.90;99.90;;;;;;4978866;28;20042;-56
2022/01/30 10:12:20;;;;;;;75.05;11.10;;;6.70;99.90;;;;;;4960631;28;20443;-54
2022/01/30 10:14:59;;;;;;;60.53;10.73;;;6.70;99.90;;;;;;4968788;28;20498;-59
2022/01/30 10:17:32;;;;;;;64.80;10.02;;;6.70;99.90;;;;;;4977384;28;20724;-58
2022/01/30 10:20:05;;;;;;;78.72;11.77;;;6.70;99.90;;;;;;4975763;28;20030;-53
2022/01/30 10:22:32;;;;;;;87.30;14.27;;;6.70;99.90;;;;;;4958776;28;20080;-55
2022/01/30 10:24:58;;;;;;;64.45;10.48;;;6.70;99.90;;;;;;4974624;28;20029;-58
2022/01/30 10:27:28;;;;;;;93.47;15.02;;;6.80;99.90;;;;;;4979547;28;20109;-58
2022/01/30 10:30:05;;;;;;;73.38;11.05;;;6.70;99.90;;;;;;4961232;28;20031;-57
2022/01/30 10:32:31;;;;;;;78.07;13.23;;;6.70;99.90;;;;;;4978343;28;20027;-57
2022/01/30 10:35:08;;;;;;;64.63;10.10;;;6.70;99.90;;;;;;4975876;28;20458;-57
2022/01/30 10:37:36;;;;;;;77.57;12.45;;;6.70;99.90;;;;;;4989495;28;20436;-55
2022/01/30 10:40:08;;;;;;;87.47;11.65;;;6.80;99.90;;;;;;4976267;28;20037;-57
2022/01/30 10:42:42;;;;;;;73.55;11.73;;;6.80;99.90;;;;;;4979976;28;20027;-55
2022/01/30 10:45:13;;;;;;;106.35;25.20;;;6.90;99.90;;;;;;4979531;28;20030;-58
2022/01/30 10:47:39;;;;;;;69.78;11.88;;;7.40;99.90;;;;;;4956617;28;20031;-58
2022/01/30 10:50:14;;;;;;;73.20;11.73;;;7.50;99.90;;;;;;4979154;28;20089;-59
2022/01/30 10:52:53;;;;;;;76.03;11.10;;;7.60;99.90;;;;;;4974124;28;20065;-54
2022/01/30 10:55:43;;;;;;;59.83;10.88;;;7.50;99.90;;;;;;4973171;28;20031;-55
2022/01/30 10:58:13;;;;;;;61.40;9.43;;;7.30;99.90;;;;;;4985097;28;20038;-55
2022/01/30 11:00:54;;;;;;;74.35;11.23;;;7.20;99.90;;;;;;4975025;28;20022;-55
2022/01/30 11:03:39;;;;;;;69.07;10.38;;;7.20;99.90;;;;;;4986536;28;20137;-55
2022/01/30 11:06:09;;;;;;;72.00;11.95;;;7.10;99.90;;;;;;4971355;28;20049;-56
2022/01/30 11:08:38;;;;;;;81.28;12.25;;;7.20;99.90;;;;;;4959358;28;20030;-55
2022/01/30 11:11:28;;;;;;;59.42;10.73;;;7.20;99.90;;;;;;4979923;28;20133;-56
2022/01/30 11:14:16;;;;;;;65.20;9.98;;;7.20;99.90;;;;;;4978591;28;20037;-55
2022/01/30 11:17:02;;;;;;;72.13;12.10;;;7.30;99.90;;;;;;4981128;28;20049;-55
2022/01/30 11:19:33;;;;;;;73.68;11.80;;;7.30;99.90;;;;;;4972556;28;20038;-54
2022/01/30 11:22:10;;;;;;;59.92;9.73;;;7.30;99.90;;;;;;4974626;28;20034;-54
2022/01/30 11:24:44;;;;;;;65.22;11.02;;;7.30;99.90;;;;;;4976986;28;20038;-55
2022/01/30 11:27:10;;;;;;;64.22;11.25;;;7.30;99.90;;;;;;4979176;28;20380;-55
2022/01/30 11:29:37;;;;;;;62.40;11.00;;;7.40;99.90;;;;;;4971501;28;20062;-53
2022/01/30 11:32:07;;;;;;;56.38;10.32;;;7.30;99.90;;;;;;4975861;28;20069;-52
2022/01/30 11:34:37;;;;;;;74.60;11.05;;;7.30;99.90;;;;;;4972587;28;20011;-52
2022/01/30 11:37:05;;;;;;;71.43;10.35;;;7.40;99.90;;;;;;4964750;28;20097;-53
2022/01/30 11:39:31;;;;;;;59.45;8.93;;;7.50;99.90;;;;;;4972517;28;20038;-54
2022/01/30 11:42:21;;;;;;;56.47;8.65;;;7.50;99.90;;;;;;4970902;28;20090;-52
2022/01/30 11:45:10;;;;;;;57.38;8.80;;;7.50;99.90;;;;;;4983991;28;20369;-55
2022/01/30 11:47:55;;;;;;;46.28;9.05;;;7.60;99.90;;;;;;4980029;28;20061;-57
2022/01/30 11:50:26;;;;;;;57.03;9.30;;;7.60;99.90;;;;;;4973990;28;20027;-53
2022/01/30 11:53:06;;;;;;;59.22;9.27;;;7.60;99.90;;;;;;4977686;28;20121;-52
2022/01/30 11:55:38;;;;;;;61.95;8.65;;;7.60;99.90;;;;;;4982767;28;20038;-53
2022/01/30 11:58:04;;;;;;;47.22;8.38;;;7.50;99.90;;;;;;4991317;28;20038;-53
2022/01/30 12:00:36;;;;;;;62.72;10.38;;;7.50;99.90;;;;;;4991693;28;20038;-56
2022/01/30 12:03:21;;;;;;;72.60;9.20;;;7.40;99.90;;;;;;4982670;28;20094;-53
2022/01/30 12:05:47;;;;;;;48.47;10.15;;;7.40;99.90;;;;;;4972490;28;20027;-55
2022/01/30 12:08:40;;;;;;;71.15;10.15;;;7.40;99.90;;;;;;4972684;28;20042;-55
2022/01/30 12:11:43;;;;;;;56.78;9.60;;;7.40;99.90;;;;;;4955159;28;20093;-55
2022/01/30 12:14:21;;;;;;;53.80;9.50;;;7.70;99.90;;;;;;4971063;28;20512;-59
2022/01/30 12:16:51;;;;;;;73.95;9.18;;;7.50;99.90;;;;;;4970061;28;20388;-60
2022/01/30 12:19:40;;;;;;;55.63;8.75;;;7.50;99.90;;;;;;4970282;28;20170;-57
2022/01/30 12:22:23;;;;;;;58.88;8.82;;;7.50;99.90;;;;;;4970069;28;20046;-60
2022/01/30 12:24:49;;;;;;;;;;;7.40;99.90;;;;;;4970734;28;20049;-59
2022/01/30 12:27:16;;;;;;;62.60;8.10;;;7.40;99.90;;;;;;4970511;28;19917;-59
2022/01/30 12:29:48;;;;;;;62.03;9.40;;;7.30;99.90;;;;;;4970570;28;20050;-59
2022/01/30 12:32:22;;;;;;;69.10;9.40;;;7.20;99.90;;;;;;4970093;28;20035;-60
2022/01/30 12:35:00;;;;;;;70.38;9.60;;;7.20;99.90;;;;;;4970498;28;20045;-59
2022/01/30 12:37:28;;;;;;;57.40;9.27;;;7.10;99.90;;;;;;4973901;28;20042;-58
2022/01/30 12:39:55;;;;;;;56.92;9.80;;;7.20;99.90;;;;;;4974586;28;20030;-61
2022/01/30 12:42:26;;;;;;;62.03;9.75;;;7.30;99.90;;;;;;4973631;28;20031;-59
2022/01/30 12:44:57;;;;;;;51.50;9.05;;;7.30;99.90;;;;;;4973726;28;20085;-58
2022/01/30 12:47:23;;;;;;;61.40;8.98;;;7.20;99.90;;;;;;4973765;28;20469;-61
2022/01/30 12:49:52;;;;;;;73.70;12.20;;;7.10;99.90;;;;;;4974948;28;20039;-59
2022/01/30 12:54:55;;;;;;;56.58;9.15;;;7.10;99.90;;;;;;4973988;28;20031;-59
2022/01/30 12:57:21;;;;;;;64.25;10.18;;;7.10;99.90;;;;;;4973068;28;20576;-61
2022/01/30 12:59:57;;;;;;;66.70;10.07;;;7.00;99.90;;;;;;4973844;28;20034;-59
2022/01/30 13:02:33;;;;;;;66.43;8.90;;;7.10;99.90;;;;;;4973431;28;20393;-60
2022/01/30 13:05:13;;;;;;;67.55;10.63;;;7.10;99.90;;;;;;4973380;28;20027;-59
2022/01/30 13:07:38;;;;;;;56.45;8.05;;;7.10;99.90;;;;;;4956403;28;20051;-59
2022/01/30 13:10:13;;;;;;;76.82;9.90;;;7.00;99.90;;;;;;4955896;28;20097;-60
2022/01/30 13:12:42;;;;;;;38.58;7.20;;;7.00;99.90;;;;;;4974348;28;20034;-60
2022/01/30 13:15:13;;;;;;;62.85;9.52;;;7.00;99.90;;;;;;4955469;28;20027;-57
2022/01/30 13:17:40;;;;;;;67.93;9.43;;;6.90;99.90;;;;;;4973531;28;20058;-60
2022/01/30 13:20:07;;;;;;;59.38;7.93;;;6.90;99.90;;;;;;4973087;28;20337;-54
2022/01/30 13:22:37;;;;;;;45.50;7.72;;;7.00;99.90;;;;;;4973733;28;20062;-57
2022/01/30 13:25:14;;;;;;;56.53;8.38;;;7.10;99.90;;;;;;4972499;28;20027;-61
2022/01/30 13:27:45;;;;;;;52.50;7.78;;;7.00;99.90;;;;;;4975331;28;20119;-59
2022/01/30 13:30:17;;;;;;;41.53;7.10;;;7.00;99.90;;;;;;4972724;28;20480;-60
2022/01/30 13:32:43;;;;;;;38.88;6.55;;;7.00;99.90;;;;;;4955987;28;20062;-58
2022/01/30 13:35:13;;;;;;;40.28;5.28;;;7.10;99.90;;;;;;4984715;28;20165;-58
2022/01/30 13:37:39;;;;;;;46.55;6.35;;;7.40;99.90;;;;;;4992575;28;20027;-57
2022/01/30 13:40:13;;;;;;;39.50;6.22;;;7.40;99.90;;;;;;4974805;28;20029;-56
2022/01/30 13:42:55;;;;;;;50.45;6.72;;;7.20;99.90;;;;;;4987049;28;20451;-58
2022/01/30 13:48:09;;;;;;;32.58;6.07;;;7.10;99.90;;;;;;4972946;28;20035;-59
2022/01/30 13:51:05;;;;;;;39.58;6.43;;;7.10;99.90;;;;;;4972336;28;20045;-59
2022/01/30 13:53:34;;;;;;;25.58;5.97;;;7.20;99.90;;;;;;4972295;28;20050;-58
2022/01/30 13:56:09;;;;;;;39.22;6.15;;;7.30;99.90;;;;;;4973500;28;20065;-57